Time;durP1;ratioP1;P1;durP2;ratioP2;P2;SDS_P1;SDS_P2;PMS_P1;PMS_P2;Temp;Humidity;BMP_temperature;BMP_pressure;BME280_temperature;BME280_humidity;BME280_pressure;Samples;Min_cycle;Max_cycle;Signal;HPM_P1;HPM_P2
2021/12/07 00:01:26;;;;;;;1.50;1.43;;;;;;;;;;5093751;28;20215;-86
2021/12/07 00:03:54;;;;;;;4.27;2.33;;;;;;;;;;5095965;28;20225;-86
2021/12/07 00:06:23;;;;;;;2.70;1.80;;;;;;;;;;5095119;28;20226;-86
2021/12/07 00:08:54;;;;;;;4.47;2.47;;;;;;;;;;5095030;28;20205;-86
2021/12/07 00:11:25;;;;;;;6.23;2.27;;;;;;;;;;5095558;28;20229;-86
2021/12/07 00:13:53;;;;;;;4.23;2.17;;;;;;;;;;5095974;28;20232;-86
2021/12/07 00:16:22;;;;;;;2.50;2.03;;;;;;;;;;5095492;28;20223;-86
2021/12/07 00:18:50;;;;;;;3.07;1.67;;;;;;;;;;5094673;28;20216;-86
2021/12/07 00:21:20;;;;;;;28.10;2.53;;;;;;;;;;5094607;28;20246;-87
2021/12/07 00:23:49;;;;;;;4.60;2.30;;;;;;;;;;5094272;28;20247;-86
2021/12/07 00:26:38;;;;;;;9.07;2.53;;;;;;;;;;5091985;28;20237;-86
2021/12/07 00:29:08;;;;;;;6.73;2.70;;;;;;;;;;5095479;28;20196;-86
2021/12/07 00:31:40;;;;;;;4.57;2.23;;;;;;;;;;5095157;28;20644;-86
2021/12/07 00:34:15;;;;;;;4.97;2.67;;;;;;;;;;5095554;28;20215;-86
2021/12/07 00:36:44;;;;;;;8.73;3.20;;;;;;;;;;5095703;28;20201;-86
2021/12/07 00:39:14;;;;;;;4.63;1.63;;;;;;;;;;5095506;28;20208;-86
2021/12/07 00:41:44;;;;;;;7.17;4.03;;;;;;;;;;5095513;28;20205;-86
2021/12/07 00:44:13;;;;;;;5.50;2.73;;;;;;;;;;5095095;28;20189;-86
2021/12/07 00:46:41;;;;;;;3.03;1.80;;;;;;;;;;5094732;28;20228;-87
2021/12/07 00:49:10;;;;;;;6.90;2.53;;;;;;;;;;5095008;28;20205;-86
2021/12/07 00:51:38;;;;;;;9.13;2.60;;;;;;;;;;5094540;28;20300;-86
2021/12/07 00:54:10;;;;;;;8.47;3.10;;;;;;;;;;5093790;28;20244;-86
2021/12/07 00:56:38;;;;;;;2.83;1.63;;;;;;;;;;5093954;28;20208;-87
2021/12/07 00:59:08;;;;;;;10.77;2.77;;;;;;;;;;5093664;28;20229;-86
2021/12/07 01:01:37;;;;;;;5.97;2.47;;;;;;;;;;5093578;28;20208;-86
2021/12/07 01:04:06;;;;;;;4.97;2.80;;;;;;;;;;5093148;28;20216;-86
2021/12/07 01:06:46;;;;;;;2.07;1.70;;;;;;;;;;5092647;28;20204;-86
2021/12/07 01:09:21;;;;;;;13.10;3.30;;;;;;;;;;5086532;28;20215;-86
2021/12/07 01:25:50;;;;;;;20.17;2.73;;;;;;;;;;5092505;28;20239;-86
2021/12/07 01:28:24;;;;;;;2.73;1.60;;;;;;;;;;5091768;28;20291;-86
2021/12/07 01:30:59;;;;;;;6.57;3.00;;;;;;;;;;5092424;28;20236;-86
2021/12/07 01:33:49;;;;;;;4.33;2.37;;;;;;;;;;5093311;28;20233;-86
2021/12/07 01:36:38;;;;;;;2.97;2.00;;;;;;;;;;5077330;28;20198;-86
2021/12/07 01:47:44;;;;;;;1.97;1.60;;;;;;;;;;5062167;28;20200;-86
2021/12/07 01:50:27;;;;;;;2.10;1.90;;;;;;;;;;5086486;28;20307;-86
2021/12/07 01:53:07;;;;;;;8.97;2.30;;;;;;;;;;5093511;28;20291;-86
2021/12/07 02:01:10;;;;;;;3.67;2.10;;;;;;;;;;5094041;28;20201;-86
2021/12/07 02:03:40;;;;;;;1.83;1.73;;;;;;;;;;5094771;28;20270;-86
2021/12/07 02:06:12;;;;;;;1.40;1.40;;;;;;;;;;5098170;28;20243;-86
2021/12/07 02:08:40;;;;;;;1.63;1.50;;;;;;;;;;5098694;28;20261;-86
2021/12/07 02:11:09;;;;;;;1.63;1.53;;;;;;;;;;5097734;28;20323;-86
2021/12/07 02:16:26;;;;;;;6.40;2.30;;;;;;;;;;5097972;28;20185;-86
2021/12/07 02:18:56;;;;;;;1.57;1.27;;;;;;;;;;5097912;28;20233;-86
2021/12/07 02:21:28;;;;;;;1.30;1.20;;;;;;;;;;5098151;28;20227;-86
2021/12/07 02:23:57;;;;;;;2.57;1.30;;;;;;;;;;5098215;28;20189;-86
2021/12/07 02:26:26;;;;;;;1.50;1.07;;;;;;;;;;5097850;28;20201;-86
2021/12/07 02:28:54;;;;;;;4.83;2.47;;;;;;;;;;5097974;28;20239;-86
2021/12/07 02:31:23;;;;;;;6.70;1.63;;;;;;;;;;5096190;28;20205;-86
2021/12/07 02:33:51;;;;;;;8.07;2.33;;;;;;;;;;5097411;28;20201;-86
2021/12/07 02:36:20;;;;;;;6.47;2.20;;;;;;;;;;5097234;28;20235;-86
2021/12/07 02:38:50;;;;;;;4.37;1.67;;;;;;;;;;5097534;28;20212;-86
2021/12/07 02:41:19;;;;;;;3.40;1.80;;;;;;;;;;5097480;28;20197;-86
2021/12/07 02:43:48;;;;;;;3.57;1.70;;;;;;;;;;5096796;28;20209;-86
2021/12/07 02:46:17;;;;;;;5.40;1.87;;;;;;;;;;5097929;28;20204;-86
2021/12/07 02:48:46;;;;;;;1.73;1.40;;;;;;;;;;5097374;28;20205;-86
2021/12/07 02:51:15;;;;;;;2.27;1.83;;;;;;;;;;5096562;28;20209;-86
2021/12/07 02:53:44;;;;;;;6.37;2.70;;;;;;;;;;5096164;28;20217;-86
2021/12/07 02:56:14;;;;;;;6.87;2.50;;;;;;;;;;5097247;28;20213;-86
2021/12/07 02:58:44;;;;;;;6.73;3.67;;;;;;;;;;5096756;28;20236;-86
2021/12/07 03:01:17;;;;;;;4.53;2.40;;;;;;;;;;5097027;28;20219;-86
2021/12/07 03:03:56;;;;;;;1.10;1.10;;;;;;;;;;5097732;28;20228;-86
2021/12/07 03:06:34;;;;;;;1.17;1.10;;;;;;;;;;5097800;28;20216;-86
2021/12/07 03:09:39;;;;;;;2.30;1.77;;;;;;;;;;5095280;28;20204;-86
2021/12/07 03:26:12;;;;;;;5.77;2.27;;;;;;;;;;5097014;28;20208;-86
2021/12/07 03:28:43;;;;;;;7.07;2.53;;;;;;;;;;5096643;28;20205;-86
2021/12/07 03:31:12;;;;;;;1.50;1.23;;;;;;;;;;5097178;28;20204;-86
2021/12/07 03:33:40;;;;;;;5.50;1.83;;;;;;;;;;5096891;28;20258;-86
2021/12/07 03:36:10;;;;;;;9.03;2.83;;;;;;;;;;5096451;28;20213;-86
2021/12/07 03:38:38;;;;;;;0.90;0.90;;;;;;;;;;5096929;28;20317;-86
2021/12/07 03:41:07;;;;;;;5.80;2.17;;;;;;;;;;5096666;28;20250;-86
2021/12/07 03:43:36;;;;;;;5.10;2.30;;;;;;;;;;5096508;28;20231;-86
2021/12/07 03:46:06;;;;;;;2.63;1.50;;;;;;;;;;5096887;28;20231;-86
2021/12/07 03:48:36;;;;;;;3.03;1.73;;;;;;;;;;5096687;28;20211;-86
2021/12/07 03:51:05;;;;;;;3.60;1.60;;;;;;;;;;5096750;28;20201;-86
2021/12/07 03:53:33;;;;;;;5.10;1.80;;;;;;;;;;5096605;28;20262;-86
2021/12/07 03:56:03;;;;;;;4.20;1.30;;;;;;;;;;5096462;28;20227;-86
2021/12/07 03:58:34;;;;;;;6.03;1.97;;;;;;;;;;5096404;28;20189;-86
2021/12/07 04:01:02;;;;;;;3.10;2.20;;;;;;;;;;5096514;28;20249;-86
2021/12/07 04:03:36;;;;;;;5.57;2.00;;;;;;;;;;5096851;28;20252;-86
2021/12/07 04:06:06;;;;;;;7.37;1.83;;;;;;;;;;5095597;28;20213;-86
2021/12/07 04:08:37;;;;;;;7.23;1.83;;;;;;;;;;5095314;28;20246;-87
2021/12/07 04:11:05;;;;;;;2.57;2.10;;;;;;;;;;5094965;28;20232;-86
2021/12/07 04:13:34;;;;;;;7.53;3.00;;;;;;;;;;5095539;28;20205;-85
2021/12/07 04:16:06;;;;;;;6.97;2.90;;;;;;;;;;5095037;28;20308;-85
2021/12/07 04:18:36;;;;;;;4.10;2.03;;;;;;;;;;5095202;28;20200;-84
2021/12/07 04:21:07;;;;;;;3.43;1.67;;;;;;;;;;5094957;28;20246;-85
2021/12/07 04:23:36;;;;;;;6.37;2.67;;;;;;;;;;5095055;28;20208;-85
2021/12/07 04:26:07;;;;;;;2.50;2.07;;;;;;;;;;5095015;28;20219;-85
2021/12/07 04:28:36;;;;;;;8.33;2.67;;;;;;;;;;5094461;28;20192;-85
2021/12/07 04:31:05;;;;;;;1.23;1.13;;;;;;;;;;5094495;28;20255;-85
2021/12/07 04:33:34;;;;;;;3.87;2.23;;;;;;;;;;5094638;28;20258;-85
2021/12/07 04:36:05;;;;;;;2.07;1.87;;;;;;;;;;5094733;28;20227;-85
2021/12/07 04:38:34;;;;;;;8.10;1.80;;;;;;;;;;5094233;28;20205;-85
2021/12/07 04:41:02;;;;;;;3.23;2.43;;;;;;;;;;5094988;28;20221;-85
2021/12/07 04:43:31;;;;;;;6.70;2.00;;;;;;;;;;5095217;28;20201;-85
2021/12/07 04:46:08;;;;;;;7.83;2.30;;;;;;;;;;5094533;28;20248;-84
2021/12/07 04:59:39;;;;;;;2.17;1.33;;;;;;;;;;5094568;28;20251;-84
2021/12/07 05:02:07;;;;;;;2.67;1.73;;;;;;;;;;5094534;28;20233;-84
2021/12/07 05:04:37;;;;;;;2.87;1.83;;;;;;;;;;5093894;28;20232;-84
2021/12/07 05:07:12;;;;;;;4.60;2.00;;;;;;;;;;5094058;28;20208;-84
2021/12/07 05:10:09;;;;;;;1.50;1.40;;;;;;;;;;5094282;28;20239;-84
2021/12/07 05:12:56;;;;;;;4.50;2.50;;;;;;;;;;5094236;28;20216;-84
2021/12/07 05:15:30;;;;;;;11.63;2.57;;;;;;;;;;5094191;28;20205;-84
2021/12/07 05:18:20;;;;;;;8.20;2.87;;;;;;;;;;5094185;28;20257;-84
2021/12/07 05:24:02;;;;;;;0.70;0.70;;;;;;;;;;5094083;28;20185;-84
2021/12/07 05:37:50;;;;;;;8.33;2.40;;;;;;;;;;5094091;28;20258;-84
2021/12/07 05:40:21;;;;;;;2.10;1.47;;;;;;;;;;5097428;28;20246;-84
2021/12/07 05:42:52;;;;;;;11.67;2.80;;;;;;;;;;5097882;28;20227;-84
2021/12/07 05:45:22;;;;;;;2.97;1.00;;;;;;;;;;5097765;28;20284;-83
2021/12/07 05:47:50;;;;;;;8.83;1.67;;;;;;;;;;5098023;28;20278;-84
2021/12/07 05:50:22;;;;;;;1.13;1.13;;;;;;;;;;5097722;28;20232;-84
2021/12/07 05:52:50;;;;;;;2.93;2.60;;;;;;;;;;5097582;28;20197;-84
2021/12/07 05:55:19;;;;;;;1.20;1.03;;;;;;;;;;5097338;28;20200;-84
2021/12/07 05:57:48;;;;;;;0.73;0.73;;;;;;;;;;5097764;28;20197;-84
2021/12/07 06:00:24;;;;;;;3.07;1.57;;;;;;;;;;5097686;28;20225;-84
2021/12/07 06:02:52;;;;;;;2.13;1.97;;;;;;;;;;5097742;28;20227;-85
2021/12/07 06:05:22;;;;;;;5.30;2.07;;;;;;;;;;5098182;28;20227;-85
2021/12/07 06:07:50;;;;;;;5.63;1.73;;;;;;;;;;5097895;28;20211;-85
2021/12/07 06:10:19;;;;;;;7.57;3.30;;;;;;;;;;5097511;28;20201;-85
2021/12/07 06:12:48;;;;;;;0.87;0.87;;;;;;;;;;5097597;28;20228;-85
2021/12/07 06:15:20;;;;;;;1.57;1.47;;;;;;;;;;5097596;28;20197;-85
2021/12/07 06:17:51;;;;;;;3.73;2.00;;;;;;;;;;5097167;28;20242;-85
2021/12/07 06:20:20;;;;;;;9.57;2.17;;;;;;;;;;5097241;28;20215;-85
2021/12/07 06:23:11;;;;;;;8.40;3.47;;;;;;;;;;5097104;28;20236;-85
2021/12/07 06:25:40;;;;;;;4.07;2.30;;;;;;;;;;5097286;28;20193;-87
2021/12/07 06:28:10;;;;;;;2.30;1.70;;;;;;;;;;5097390;28;20208;-88
2021/12/07 06:30:41;;;;;;;3.57;2.03;;;;;;;;;;5097200;28;20185;-88
2021/12/07 06:33:10;;;;;;;10.27;2.47;;;;;;;;;;5097438;28;20208;-89
2021/12/07 06:35:38;;;;;;;1.70;1.23;;;;;;;;;;5096718;28;20292;-89
2021/12/07 06:38:07;;;;;;;1.20;1.07;;;;;;;;;;5097406;28;20264;-90
2021/12/07 06:40:35;;;;;;;2.43;1.90;;;;;;;;;;5097584;28;20256;-89
2021/12/07 06:43:04;;;;;;;2.53;1.57;;;;;;;;;;5096994;28;20205;-89
2021/12/07 06:45:34;;;;;;;1.10;0.97;;;;;;;;;;5096892;28;20224;-90
2021/12/07 06:48:02;;;;;;;4.27;1.30;;;;;;;;;;5097525;28;20205;-88
2021/12/07 06:50:31;;;;;;;3.60;1.90;;;;;;;;;;5096287;28;20208;-91
2021/12/07 06:52:59;;;;;;;2.20;1.53;;;;;;;;;;5097234;28;20235;-92
2021/12/07 06:55:28;;;;;;;4.20;2.10;;;;;;;;;;5096851;28;20204;-92
2021/12/07 06:57:56;;;;;;;4.63;1.43;;;;;;;;;;5096945;28;20224;-92
2021/12/07 07:00:25;;;;;;;1.27;1.17;;;;;;;;;;5096892;28;20204;-93
2021/12/07 07:02:55;;;;;;;2.00;1.20;;;;;;;;;;5096921;28;20244;-92
2021/12/07 07:05:24;;;;;;;2.03;1.60;;;;;;;;;;5096788;28;20185;-93
2021/12/07 07:07:52;;;;;;;7.40;2.20;;;;;;;;;;5097178;28;20215;-93
2021/12/07 07:10:21;;;;;;;0.97;0.97;;;;;;;;;;5096720;28;20197;-93
2021/12/07 07:12:50;;;;;;;24.00;2.90;;;;;;;;;;5097186;28;20204;-93
2021/12/07 07:15:18;;;;;;;8.63;1.87;;;;;;;;;;5096474;28;20282;-93
2021/12/07 07:17:47;;;;;;;0.80;0.80;;;;;;;;;;5096772;28;20221;-92
2021/12/07 07:20:17;;;;;;;3.13;1.87;;;;;;;;;;5096707;28;20225;-92
2021/12/07 07:22:46;;;;;;;3.73;1.87;;;;;;;;;;5096784;28;20193;-92
2021/12/07 07:25:14;;;;;;;4.80;1.37;;;;;;;;;;5096748;28;20231;-92
2021/12/07 07:27:43;;;;;;;4.80;1.20;;;;;;;;;;5095984;28;20337;-92
2021/12/07 07:30:13;;;;;;;1.20;1.20;;;;;;;;;;5096634;28;20254;-92
2021/12/07 07:32:41;;;;;;;0.93;0.93;;;;;;;;;;5096522;28;20201;-92
2021/12/07 07:35:14;;;;;;;2.47;2.33;;;;;;;;;;5096377;28;20205;-93
2021/12/07 07:37:44;;;;;;;3.60;2.50;;;;;;;;;;5096662;28;20224;-92
2021/12/07 07:40:13;;;;;;;0.80;0.80;;;;;;;;;;5096615;28;20196;-92
2021/12/07 07:42:45;;;;;;;1.40;1.30;;;;;;;;;;5086344;28;20194;-90
2021/12/07 07:45:20;;;;;;;0.70;0.70;;;;;;;;;;5075049;28;20194;-88
2021/12/07 07:47:51;;;;;;;2.63;1.40;;;;;;;;;;5076051;28;20261;-92
2021/12/07 07:50:23;;;;;;;0.80;0.80;;;;;;;;;;5088072;28;20217;-91
2021/12/07 07:52:55;;;;;;;3.13;3.03;;;;;;;;;;5086691;28;20205;-92
2021/12/07 07:55:26;;;;;;;1.00;1.00;;;;;;;;;;5075029;28;20233;-91
2021/12/07 07:57:58;;;;;;;1.17;1.17;;;;;;;;;;5084421;28;20230;-89
2021/12/07 08:00:35;;;;;;;1.33;1.33;;;;;;;;;;5078436;28;20297;-91
2021/12/07 08:03:07;;;;;;;0.90;0.90;;;;;;;;;;5088665;28;20232;-90
2021/12/07 08:05:36;;;;;;;0.80;0.80;;;;;;;;;;5095635;28;20227;-91
2021/12/07 08:08:06;;;;;;;0.70;0.70;;;;;;;;;;5095436;28;20201;-90
2021/12/07 08:10:38;;;;;;;1.53;1.43;;;;;;;;;;5094415;28;20293;-90
2021/12/07 08:13:07;;;;;;;0.70;0.70;;;;;;;;;;5095296;28;20215;-90
2021/12/07 08:15:39;;;;;;;0.80;0.80;;;;;;;;;;5095554;28;20232;-91
2021/12/07 08:18:10;;;;;;;0.80;0.80;;;;;;;;;;5092215;28;20316;-90
2021/12/07 08:20:39;;;;;;;0.77;0.77;;;;;;;;;;5090072;28;20204;-90
2021/12/07 08:23:11;;;;;;;0.70;0.70;;;;;;;;;;5095141;28;20295;-89
2021/12/07 08:25:41;;;;;;;1.90;1.10;;;;;;;;;;5095281;28;20233;-90
2021/12/07 08:28:12;;;;;;;1.47;1.37;;;;;;;;;;5093091;28;20216;-89
2021/12/07 08:30:41;;;;;;;0.80;0.80;;;;;;;;;;5095401;28;20295;-89
2021/12/07 08:33:10;;;;;;;5.03;2.13;;;;;;;;;;5079283;28;20221;-90
2021/12/07 08:35:39;;;;;;;0.80;0.80;;;;;;;;;;5075820;28;20209;-90
2021/12/07 08:38:09;;;;;;;3.70;2.13;;;;;;;;;;5074900;28;20225;-89
2021/12/07 08:40:43;;;;;;;0.80;0.80;;;;;;;;;;5074881;28;20208;-90
2021/12/07 08:43:19;;;;;;;0.90;0.90;;;;;;;;;;5074709;28;20300;-90
2021/12/07 08:45:51;;;;;;;1.60;1.43;;;;;;;;;;5074991;28;20244;-90
2021/12/07 08:48:20;;;;;;;5.00;2.30;;;;;;;;;;5074520;28;20198;-90
2021/12/07 08:50:51;;;;;;;5.07;1.90;;;;;;;;;;5074638;28;20201;-89
2021/12/07 08:53:23;;;;;;;4.90;2.07;;;;;;;;;;5091269;28;20295;-89
2021/12/07 09:01:45;;;;;;;3.87;2.20;;;;;;;;;;5074686;28;20211;-90
2021/12/07 09:04:17;;;;;;;3.00;2.20;;;;;;;;;;5062567;28;20225;-90
2021/12/07 09:06:45;;;;;;;6.37;2.67;;;;;;;;;;5085350;28;20201;-89
2021/12/07 09:09:14;;;;;;;2.10;1.53;;;;;;;;;;5087712;28;20224;-88
2021/12/07 09:11:45;;;;;;;6.70;2.80;;;;;;;;;;5093750;28;20410;-89
2021/12/07 09:14:15;;;;;;;2.30;1.67;;;;;;;;;;5093947;28;20214;-89
2021/12/07 09:16:47;;;;;;;5.43;2.40;;;;;;;;;;5094040;28;20196;-89
2021/12/07 09:19:16;;;;;;;4.80;2.63;;;;;;;;;;5094418;28;20213;-89
2021/12/07 09:21:45;;;;;;;9.80;3.43;;;;;;;;;;5094036;28;20258;-88
2021/12/07 09:24:13;;;;;;;7.80;3.60;;;;;;;;;;5094247;28;20279;-89
2021/12/07 09:26:43;;;;;;;8.20;3.10;;;;;;;;;;5094031;28;20201;-89
2021/12/07 09:29:14;;;;;;;5.40;2.60;;;;;;;;;;5094101;28;20283;-89
2021/12/07 09:31:42;;;;;;;6.80;3.00;;;;;;;;;;5093910;28;20204;-89
2021/12/07 09:34:11;;;;;;;3.30;2.70;;;;;;;;;;5093944;28;20221;-90
2021/12/07 09:36:45;;;;;;;8.50;2.90;;;;;;;;;;5094404;28;20197;-89
2021/12/07 09:39:17;;;;;;;11.10;4.00;;;;;;;;;;5093895;28;20277;-88
2021/12/07 09:41:46;;;;;;;8.80;3.70;;;;;;;;;;5094000;28;20201;-88
2021/12/07 09:44:16;;;;;;;10.73;5.17;;;;;;;;;;5093836;28;20209;-88
2021/12/07 09:46:51;;;;;;;7.27;3.13;;;;;;;;;;5094104;28;20197;-88
2021/12/07 09:49:23;;;;;;;7.83;3.60;;;;;;;;;;5093975;28;20215;-88
2021/12/07 09:51:53;;;;;;;9.83;3.50;;;;;;;;;;5094491;28;20242;-87
2021/12/07 09:54:24;;;;;;;13.57;3.70;;;;;;;;;;5093644;28;20219;-88
2021/12/07 09:56:52;;;;;;;7.17;3.60;;;;;;;;;;5093853;28;20189;-87
2021/12/07 09:59:22;;;;;;;11.80;4.13;;;;;;;;;;5093702;28;20254;-88
2021/12/07 10:01:51;;;;;;;8.37;4.43;;;;;;;;;;5093553;28;20205;-88
2021/12/07 10:04:19;;;;;;;8.27;4.47;;;;;;;;;;5093740;28;20217;-87
2021/12/07 10:06:49;;;;;;;10.13;4.83;;;;;;;;;;5093634;28;20223;-88
2021/12/07 10:09:18;;;;;;;12.73;5.27;;;;;;;;;;5093699;28;20197;-88
2021/12/07 10:11:46;;;;;;;4.70;3.40;;;;;;;;;;5093655;28;20247;-87
2021/12/07 10:14:22;;;;;;;1.80;1.70;;;;;;;;;;5094175;28;20205;-88
2021/12/07 10:16:54;;;;;;;12.43;4.33;;;;;;;;;;5093785;28;20231;-88
2021/12/07 10:19:28;;;;;;;7.33;3.60;;;;;;;;;;5093167;28;20232;-88
2021/12/07 10:22:01;;;;;;;7.27;4.20;;;;;;;;;;5094061;28;20201;-88
2021/12/07 10:24:39;;;;;;;5.73;2.63;;;;;;;;;;5094390;28;20213;-88
2021/12/07 10:27:08;;;;;;;8.00;3.53;;;;;;;;;;5097170;28;20200;-88
2021/12/07 10:29:37;;;;;;;10.37;3.93;;;;;;;;;;5097569;28;20207;-88
2021/12/07 10:32:08;;;;;;;7.73;3.97;;;;;;;;;;5096942;28;20221;-88
2021/12/07 10:34:42;;;;;;;9.43;4.50;;;;;;;;;;5097377;28;20227;-87
2021/12/07 10:37:14;;;;;;;4.20;3.20;;;;;;;;;;5097286;28;20265;-88
2021/12/07 10:39:45;;;;;;;15.87;4.00;;;;;;;;;;5096879;28;20326;-88
2021/12/07 10:42:14;;;;;;;12.03;3.63;;;;;;;;;;5096801;28;20291;-88
2021/12/07 10:45:00;;;;;;;8.57;4.43;;;;;;;;;;5097108;28;20205;-89
2021/12/07 10:47:34;;;;;;;8.87;3.03;;;;;;;;;;5096969;28;20200;-88
2021/12/07 10:50:05;;;;;;;7.97;3.80;;;;;;;;;;5096986;28;20212;-88
2021/12/07 10:52:35;;;;;;;11.53;3.13;;;;;;;;;;5096470;28;20231;-90
2021/12/07 10:55:15;;;;;;;7.90;3.03;;;;;;;;;;5096825;28;20204;-90
2021/12/07 10:57:46;;;;;;;9.77;3.97;;;;;;;;;;5096990;28;20213;-90
2021/12/07 11:00:21;;;;;;;5.97;3.47;;;;;;;;;;5096840;28;20270;-90
2021/12/07 11:03:02;;;;;;;8.83;3.77;;;;;;;;;;5096604;28;20229;-90
2021/12/07 11:05:31;;;;;;;12.00;3.30;;;;;;;;;;5097159;28;20185;-89
2021/12/07 11:08:02;;;;;;;4.90;2.60;;;;;;;;;;5096839;28;20279;-90
2021/12/07 11:10:36;;;;;;;6.13;2.77;;;;;;;;;;5096375;28;20200;-88
2021/12/07 11:13:08;;;;;;;8.63;4.00;;;;;;;;;;5096785;28;20208;-91
2021/12/07 11:15:37;;;;;;;10.33;4.67;;;;;;;;;;5096642;28;20197;-90
2021/12/07 11:18:13;;;;;;;5.23;2.70;;;;;;;;;;5096367;28;20197;-90
2021/12/07 11:20:41;;;;;;;5.30;3.53;;;;;;;;;;5096985;28;20185;-91
2021/12/07 11:23:12;;;;;;;9.17;4.40;;;;;;;;;;5096278;28;20208;-90
2021/12/07 11:31:21;;;;;;;5.73;3.17;;;;;;;;;;5076147;28;20212;-90
2021/12/07 11:33:53;;;;;;;8.43;3.37;;;;;;;;;;5076180;28;20224;-91
2021/12/07 11:36:24;;;;;;;8.10;4.27;;;;;;;;;;5075236;28;20198;-90
2021/12/07 11:38:53;;;;;;;6.53;3.97;;;;;;;;;;5076141;28;20279;-91
2021/12/07 11:41:24;;;;;;;8.53;4.70;;;;;;;;;;5075613;28;20264;-90
2021/12/07 11:43:58;;;;;;;11.77;4.20;;;;;;;;;;5076122;28;20201;-89
2021/12/07 11:46:31;;;;;;;10.40;3.43;;;;;;;;;;5075915;28;20220;-90
2021/12/07 11:49:22;;;;;;;6.63;2.63;;;;;;;;;;5076031;28;20189;-90
2021/12/07 11:51:53;;;;;;;11.00;3.70;;;;;;;;;;5067907;28;20197;-90
2021/12/07 11:54:24;;;;;;;7.20;4.00;;;;;;;;;;5075861;28;20194;-90
2021/12/07 11:56:53;;;;;;;7.70;4.50;;;;;;;;;;5076446;28;20201;-90
2021/12/07 11:59:22;;;;;;;4.80;2.70;;;;;;;;;;5075838;28;20316;-90
2021/12/07 12:01:52;;;;;;;8.00;3.30;;;;;;;;;;5076119;28;20193;-90
2021/12/07 12:04:21;;;;;;;3.73;2.90;;;;;;;;;;5075703;28;20229;-91
2021/12/07 12:07:03;;;;;;;11.53;4.60;;;;;;;;;;5076061;28;20232;-90
2021/12/07 12:09:36;;;;;;;7.47;3.60;;;;;;;;;;5076291;28;20292;-90
2021/12/07 12:12:11;;;;;;;7.23;3.80;;;;;;;;;;5075603;28;20245;-90
2021/12/07 12:14:46;;;;;;;5.33;3.10;;;;;;;;;;5075605;28;20205;-90
2021/12/07 12:17:20;;;;;;;6.20;3.50;;;;;;;;;;5075825;28;20190;-90
2021/12/07 12:19:57;;;;;;;3.93;2.50;;;;;;;;;;5076288;28;20202;-90
2021/12/07 12:22:32;;;;;;;8.80;3.67;;;;;;;;;;5075403;28;20215;-90
2021/12/07 12:25:06;;;;;;;8.00;3.17;;;;;;;;;;5076373;28;20190;-90
2021/12/07 12:27:40;;;;;;;6.07;3.67;;;;;;;;;;5075669;28;20201;-90
2021/12/07 12:30:22;;;;;;;11.03;4.20;;;;;;;;;;5075254;28;20209;-90
2021/12/07 12:32:54;;;;;;;8.10;1.97;;;;;;;;;;5074928;28;20178;-91
2021/12/07 12:35:28;;;;;;;12.37;2.43;;;;;;;;;;5074940;28;20206;-90
2021/12/07 12:38:03;;;;;;;8.13;4.80;;;;;;;;;;5075187;28;20197;-91
2021/12/07 12:40:33;;;;;;;9.43;5.03;;;;;;;;;;5074969;28;20300;-91
2021/12/07 12:43:03;;;;;;;6.37;3.00;;;;;;;;;;5074526;28;20259;-89
2021/12/07 12:45:34;;;;;;;9.73;4.40;;;;;;;;;;5074989;28;20198;-90
2021/12/07 12:48:04;;;;;;;8.73;3.47;;;;;;;;;;5074282;28;20190;-91
2021/12/07 12:50:35;;;;;;;9.10;4.13;;;;;;;;;;5074413;28;20297;-91
2021/12/07 12:53:06;;;;;;;9.90;5.03;;;;;;;;;;5074747;28;20231;-90
2021/12/07 12:55:45;;;;;;;10.60;3.63;;;;;;;;;;5074890;28;20209;-90
2021/12/07 12:58:16;;;;;;;18.23;6.63;;;;;;;;;;5074773;28;20213;-90
2021/12/07 13:01:07;;;;;;;11.40;5.50;;;;;;;;;;5074513;28;20234;-90
2021/12/07 13:03:44;;;;;;;14.50;5.73;;;;;;;;;;5075419;28;20224;-88
2021/12/07 13:06:15;;;;;;;16.17;7.43;;;;;;;;;;5073881;28;20213;-88
2021/12/07 13:08:55;;;;;;;14.90;4.43;;;;;;;;;;5073862;28;20205;-88
2021/12/07 13:11:32;;;;;;;11.87;5.67;;;;;;;;;;5073849;28;20233;-88
2021/12/07 13:14:02;;;;;;;14.30;6.77;;;;;;;;;;5073841;28;20189;-88
2021/12/07 13:16:33;;;;;;;14.50;6.67;;;;;;;;;;5073676;28;20201;-88
2021/12/07 13:19:08;;;;;;;15.37;8.10;;;;;;;;;;5073707;28;20202;-88
2021/12/07 13:21:39;;;;;;;15.50;6.13;;;;;;;;;;5073486;28;20304;-86
2021/12/07 13:24:10;;;;;;;7.13;3.23;;;;;;;;;;5073681;28;20190;-86
2021/12/07 13:26:46;;;;;;;15.80;6.27;;;;;;;;;;5081522;28;20201;-87
2021/12/07 13:29:20;;;;;;;17.20;8.33;;;;;;;;;;5093628;28;20209;-87
2021/12/07 13:31:51;;;;;;;19.40;8.20;;;;;;;;;;5094202;28;20204;-87
2021/12/07 13:34:25;;;;;;;10.77;5.63;;;;;;;;;;5093947;28;20212;-87
2021/12/07 13:36:58;;;;;;;9.33;3.43;;;;;;;;;;5093857;28;20196;-87
2021/12/07 13:39:32;;;;;;;10.67;6.07;;;;;;;;;;5093695;28;20219;-86
2021/12/07 13:42:03;;;;;;;11.30;5.03;;;;;;;;;;5093731;28;20188;-87
2021/12/07 13:44:32;;;;;;;9.07;3.47;;;;;;;;;;5093764;28;20200;-87
2021/12/07 13:47:02;;;;;;;10.53;4.73;;;;;;;;;;5093294;28;20200;-86
2021/12/07 13:49:32;;;;;;;18.93;7.50;;;;;;;;;;5093820;28;20204;-88
2021/12/07 13:52:01;;;;;;;15.90;6.60;;;;;;;;;;5093603;28;20205;-86
2021/12/07 13:54:32;;;;;;;13.87;5.90;;;;;;;;;;5093753;28;20197;-86
2021/12/07 13:57:02;;;;;;;14.00;6.93;;;;;;;;;;5093547;28;20239;-87
2021/12/07 13:59:31;;;;;;;11.70;6.53;;;;;;;;;;5094197;28;20255;-86
2021/12/07 14:02:01;;;;;;;9.67;6.53;;;;;;;;;;5097530;28;20205;-86
2021/12/07 14:04:31;;;;;;;9.07;5.03;;;;;;;;;;5097785;28;20239;-87
2021/12/07 14:07:00;;;;;;;11.97;6.43;;;;;;;;;;5097919;28;20201;-87
2021/12/07 14:09:29;;;;;;;9.30;5.83;;;;;;;;;;5097340;28;20201;-86
2021/12/07 14:11:59;;;;;;;10.40;6.87;;;;;;;;;;5097219;28;20240;-87
2021/12/07 14:14:29;;;;;;;9.00;5.83;;;;;;;;;;5097116;28;20232;-87
2021/12/07 14:16:59;;;;;;;10.57;6.37;;;;;;;;;;5097468;28;20208;-86
2021/12/07 14:19:32;;;;;;;8.20;6.27;;;;;;;;;;5097547;28;20201;-86
2021/12/07 14:22:04;;;;;;;11.93;5.70;;;;;;;;;;5097137;28;20251;-87
2021/12/07 14:24:34;;;;;;;13.63;5.77;;;;;;;;;;5097450;28;20220;-87
2021/12/07 14:27:03;;;;;;;5.93;3.90;;;;;;;;;;5097296;28;20325;-86
2021/12/07 14:29:33;;;;;;;11.43;6.60;;;;;;;;;;5097462;28;20212;-86
2021/12/07 14:32:10;;;;;;;10.57;4.67;;;;;;;;;;5097389;28;20197;-87
2021/12/07 14:34:45;;;;;;;9.90;4.90;;;;;;;;;;5097536;28;20267;-86
2021/12/07 14:37:14;;;;;;;13.27;5.33;;;;;;;;;;5096980;28;20205;-86
2021/12/07 14:39:43;;;;;;;10.67;6.03;;;;;;;;;;5097035;28;20242;-87
2021/12/07 14:42:12;;;;;;;7.27;5.17;;;;;;;;;;5096538;28;20228;-86
2021/12/07 14:44:46;;;;;;;10.80;6.10;;;;;;;;;;5097253;28;20222;-86
2021/12/07 14:47:17;;;;;;;10.77;6.67;;;;;;;;;;5096990;28;20208;-86
2021/12/07 14:49:48;;;;;;;8.87;4.90;;;;;;;;;;5096915;28;20193;-86
2021/12/07 14:52:17;;;;;;;10.40;5.53;;;;;;;;;;5096973;28;20246;-86
2021/12/07 14:54:46;;;;;;;9.97;4.97;;;;;;;;;;5096998;28;20205;-86
2021/12/07 14:57:16;;;;;;;11.43;4.57;;;;;;;;;;5097035;28;20208;-86
2021/12/07 14:59:52;;;;;;;7.33;4.97;;;;;;;;;;5096930;28;20253;-86
2021/12/07 15:02:20;;;;;;;3.53;2.73;;;;;;;;;;5096538;28;20276;-86
2021/12/07 15:04:54;;;;;;;12.47;4.87;;;;;;;;;;5096273;28;20245;-86
2021/12/07 15:07:30;;;;;;;13.83;6.73;;;;;;;;;;5097068;28;20193;-87
2021/12/07 15:10:00;;;;;;;7.33;4.43;;;;;;;;;;5096794;28;20184;-86
2021/12/07 15:12:29;;;;;;;12.13;5.97;;;;;;;;;;5095319;28;20225;-86
2021/12/07 15:15:00;;;;;;;9.47;5.67;;;;;;;;;;5096271;28;20211;-86
2021/12/07 15:17:28;;;;;;;9.07;5.40;;;;;;;;;;5096040;28;20208;-86
2021/12/07 15:20:00;;;;;;;7.37;4.23;;;;;;;;;;5095817;28;20201;-86
2021/12/07 15:22:29;;;;;;;4.27;2.90;;;;;;;;;;5096255;28;20205;-85
2021/12/07 15:25:07;;;;;;;9.20;5.20;;;;;;;;;;5096162;28;20292;-86
2021/12/07 15:27:36;;;;;;;8.73;4.87;;;;;;;;;;5096294;28;20209;-86
2021/12/07 15:30:06;;;;;;;7.03;4.13;;;;;;;;;;5096249;28;20250;-86
2021/12/07 15:32:34;;;;;;;11.33;5.00;;;;;;;;;;5095843;28;20262;-83
2021/12/07 15:35:03;;;;;;;3.77;2.67;;;;;;;;;;5095854;28;20205;-84
2021/12/07 15:37:32;;;;;;;10.80;5.13;;;;;;;;;;5095672;28;20233;-85
2021/12/07 15:40:02;;;;;;;8.23;4.33;;;;;;;;;;5095465;28;20252;-83
2021/12/07 15:42:34;;;;;;;10.37;3.80;;;;;;;;;;5095764;28;20212;-84
2021/12/07 15:45:05;;;;;;;13.17;2.93;;;;;;;;;;5096024;28;20208;-85
2021/12/07 15:47:36;;;;;;;7.00;3.70;;;;;;;;;;5095320;28;20205;-84
2021/12/07 15:50:07;;;;;;;5.07;2.73;;;;;;;;;;5095741;28;20213;-85
2021/12/07 15:52:37;;;;;;;7.27;4.47;;;;;;;;;;5096589;28;20192;-85
2021/12/07 15:55:14;;;;;;;6.93;3.53;;;;;;;;;;5095725;28;20200;-87
2021/12/07 15:57:44;;;;;;;9.93;4.33;;;;;;;;;;5096307;28;20208;-85
2021/12/07 16:00:14;;;;;;;5.37;5.17;;;;;;;;;;5096351;28;20193;-85
2021/12/07 16:02:52;;;;;;;7.83;3.60;;;;;;;;;;5095808;28;20225;-85
2021/12/07 16:05:44;;;;;;;8.17;5.17;;;;;;;;;;5095451;28;20209;-84
2021/12/07 16:08:14;;;;;;;8.00;4.03;;;;;;;;;;5095061;28;20201;-85
2021/12/07 16:10:44;;;;;;;10.20;4.43;;;;;;;;;;5094793;28;20269;-84
2021/12/07 16:13:15;;;;;;;8.13;3.30;;;;;;;;;;5095205;28;20198;-84
2021/12/07 16:15:44;;;;;;;3.10;2.60;;;;;;;;;;5095464;28;20209;-84
2021/12/07 16:18:14;;;;;;;8.30;3.60;;;;;;;;;;5094864;28;20292;-84
2021/12/07 16:20:43;;;;;;;5.23;2.40;;;;;;;;;;5094959;28;20201;-84
2021/12/07 16:23:11;;;;;;;7.50;3.43;;;;;;;;;;5094668;28;20220;-85
2021/12/07 16:25:40;;;;;;;2.47;2.10;;;;;;;;;;5094483;28;20193;-84
2021/12/07 16:28:30;;;;;;;5.13;3.07;;;;;;;;;;5095141;28;20294;-85